sensor_id;sensor_type;location;lat;lon;timestamp;temperature;humidity
24468;DHT22;12634;50.852;5.676;2023-12-14T00:00:45;7.90;99.90
24468;DHT22;12634;50.852;5.676;2023-12-14T00:03:14;7.90;99.90
24468;DHT22;12634;50.852;5.676;2023-12-14T00:05:41;7.90;99.90
24468;DHT22;12634;50.852;5.676;2023-12-14T00:08:08;7.90;99.90
24468;DHT22;12634;50.852;5.676;2023-12-14T00:10:35;7.90;99.90
24468;DHT22;12634;50.852;5.676;2023-12-14T00:13:02;7.90;99.90
24468;DHT22;12634;50.852;5.676;2023-12-14T00:15:30;7.80;99.90
24468;DHT22;12634;50.852;5.676;2023-12-14T00:17:58;7.80;99.90
24468;DHT22;12634;50.852;5.676;2023-12-14T00:20:26;7.80;99.90
24468;DHT22;12634;50.852;5.676;2023-12-14T00:22:53;7.80;99.90
24468;DHT22;12634;50.852;5.676;2023-12-14T00:25:20;7.80;99.90
24468;DHT22;12634;50.852;5.676;2023-12-14T00:27:48;7.80;99.90
24468;DHT22;12634;50.852;5.676;2023-12-14T00:30:15;7.80;99.90
24468;DHT22;12634;50.852;5.676;2023-12-14T00:32:42;7.90;99.90
24468;DHT22;12634;50.852;5.676;2023-12-14T00:35:09;7.90;99.90
24468;DHT22;12634;50.852;5.676;2023-12-14T00:37:38;7.90;99.90
24468;DHT22;12634;50.852;5.676;2023-12-14T00:40:06;7.90;99.90
24468;DHT22;12634;50.852;5.676;2023-12-14T00:42:33;7.90;99.90
24468;DHT22;12634;50.852;5.676;2023-12-14T00:45:00;7.90;99.90
24468;DHT22;12634;50.852;5.676;2023-12-14T00:47:28;8.00;99.90
24468;DHT22;12634;50.852;5.676;2023-12-14T00:49:55;8.00;99.90
24468;DHT22;12634;50.852;5.676;2023-12-14T00:52:22;8.00;99.90
24468;DHT22;12634;50.852;5.676;2023-12-14T00:54:50;8.00;99.90
24468;DHT22;12634;50.852;5.676;2023-12-14T00:57:18;8.00;99.90
24468;DHT22;12634;50.852;5.676;2023-12-14T00:59:45;8.00;99.90
24468;DHT22;12634;50.852;5.676;2023-12-14T01:02:12;8.10;99.90
24468;DHT22;12634;50.852;5.676;2023-12-14T01:04:39;8.10;99.90
24468;DHT22;12634;50.852;5.676;2023-12-14T01:07:08;8.10;99.90
24468;DHT22;12634;50.852;5.676;2023-12-14T01:09:35;8.10;99.90
24468;DHT22;12634;50.852;5.676;2023-12-14T01:12:04;8.10;99.90
24468;DHT22;12634;50.852;5.676;2023-12-14T01:14:31;8.10;99.90
24468;DHT22;12634;50.852;5.676;2023-12-14T01:16:59;8.20;99.90
24468;DHT22;12634;50.852;5.676;2023-12-14T01:19:26;8.20;99.90
24468;DHT22;12634;50.852;5.676;2023-12-14T01:21:53;8.10;99.90
24468;DHT22;12634;50.852;5.676;2023-12-14T01:24:21;8.10;99.90
24468;DHT22;12634;50.852;5.676;2023-12-14T01:26:48;8.20;99.90
24468;DHT22;12634;50.852;5.676;2023-12-14T01:29:16;8.10;99.90
24468;DHT22;12634;50.852;5.676;2023-12-14T01:31:43;8.20;99.90
24468;DHT22;12634;50.852;5.676;2023-12-14T01:34:10;8.20;99.90
24468;DHT22;12634;50.852;5.676;2023-12-14T01:36:38;8.20;99.90
24468;DHT22;12634;50.852;5.676;2023-12-14T01:39:05;8.20;99.90
24468;DHT22;12634;50.852;5.676;2023-12-14T01:41:32;8.20;99.90
24468;DHT22;12634;50.852;5.676;2023-12-14T01:44:00;8.20;99.90
24468;DHT22;12634;50.852;5.676;2023-12-14T01:46:29;8.20;99.90
24468;DHT22;12634;50.852;5.676;2023-12-14T01:48:56;8.10;99.90
24468;DHT22;12634;50.852;5.676;2023-12-14T01:51:23;8.10;99.90
24468;DHT22;12634;50.852;5.676;2023-12-14T01:53:50;8.10;99.90
24468;DHT22;12634;50.852;5.676;2023-12-14T01:56:17;8.10;99.90
24468;DHT22;12634;50.852;5.676;2023-12-14T01:58:44;8.10;99.90
24468;DHT22;12634;50.852;5.676;2023-12-14T02:01:18;8.10;99.90
24468;DHT22;12634;50.852;5.676;2023-12-14T02:03:50;8.10;99.90
24468;DHT22;12634;50.852;5.676;2023-12-14T02:06:18;8.00;99.90
24468;DHT22;12634;50.852;5.676;2023-12-14T02:08:45;8.10;99.90
24468;DHT22;12634;50.852;5.676;2023-12-14T02:11:12;8.00;99.90
24468;DHT22;12634;50.852;5.676;2023-12-14T02:13:39;8.10;99.90
24468;DHT22;12634;50.852;5.676;2023-12-14T02:16:07;8.10;99.90
24468;DHT22;12634;50.852;5.676;2023-12-14T02:18:35;8.10;99.90
24468;DHT22;12634;50.852;5.676;2023-12-14T02:21:04;8.10;99.90
24468;DHT22;12634;50.852;5.676;2023-12-14T02:23:32;8.20;99.90
24468;DHT22;12634;50.852;5.676;2023-12-14T02:26:00;8.20;99.90
24468;DHT22;12634;50.852;5.676;2023-12-14T02:28:27;8.20;99.90
24468;DHT22;12634;50.852;5.676;2023-12-14T02:30:54;8.20;99.90
24468;DHT22;12634;50.852;5.676;2023-12-14T02:33:21;8.20;99.90
24468;DHT22;12634;50.852;5.676;2023-12-14T02:35:48;8.10;99.90
24468;DHT22;12634;50.852;5.676;2023-12-14T02:38:16;8.10;99.90
24468;DHT22;12634;50.852;5.676;2023-12-14T02:40:44;8.10;99.90
24468;DHT22;12634;50.852;5.676;2023-12-14T02:43:11;7.90;99.90
24468;DHT22;12634;50.852;5.676;2023-12-14T02:45:38;7.90;99.90
24468;DHT22;12634;50.852;5.676;2023-12-14T02:48:05;7.80;99.90
24468;DHT22;12634;50.852;5.676;2023-12-14T02:50:33;7.70;99.90
24468;DHT22;12634;50.852;5.676;2023-12-14T02:53:00;7.70;99.90
24468;DHT22;12634;50.852;5.676;2023-12-14T02:55:27;7.60;99.90
24468;DHT22;12634;50.852;5.676;2023-12-14T02:57:56;7.60;99.90
24468;DHT22;12634;50.852;5.676;2023-12-14T03:00:23;7.50;99.90
24468;DHT22;12634;50.852;5.676;2023-12-14T03:02:50;7.40;99.90
24468;DHT22;12634;50.852;5.676;2023-12-14T03:05:17;7.40;99.90
24468;DHT22;12634;50.852;5.676;2023-12-14T03:07:44;7.40;99.90
24468;DHT22;12634;50.852;5.676;2023-12-14T03:10:11;7.30;99.90
24468;DHT22;12634;50.852;5.676;2023-12-14T03:12:38;7.30;99.90
24468;DHT22;12634;50.852;5.676;2023-12-14T03:15:08;7.30;99.90
24468;DHT22;12634;50.852;5.676;2023-12-14T03:17:35;7.30;99.90
24468;DHT22;12634;50.852;5.676;2023-12-14T03:20:03;7.30;99.90
24468;DHT22;12634;50.852;5.676;2023-12-14T03:22:32;7.30;99.90
24468;DHT22;12634;50.852;5.676;2023-12-14T03:24:59;7.30;99.90
24468;DHT22;12634;50.852;5.676;2023-12-14T03:27:26;7.30;99.90
24468;DHT22;12634;50.852;5.676;2023-12-14T03:29:53;7.30;99.90
24468;DHT22;12634;50.852;5.676;2023-12-14T03:32:22;7.20;99.90
24468;DHT22;12634;50.852;5.676;2023-12-14T03:34:49;7.20;99.90
24468;DHT22;12634;50.852;5.676;2023-12-14T03:37:16;7.20;99.90
24468;DHT22;12634;50.852;5.676;2023-12-14T03:39:43;7.20;99.90
24468;DHT22;12634;50.852;5.676;2023-12-14T03:42:10;7.20;99.90
24468;DHT22;12634;50.852;5.676;2023-12-14T03:44:38;7.10;99.90
24468;DHT22;12634;50.852;5.676;2023-12-14T03:47:05;7.10;99.90
24468;DHT22;12634;50.852;5.676;2023-12-14T03:49:38;7.00;99.90
24468;DHT22;12634;50.852;5.676;2023-12-14T03:52:05;7.00;99.90
24468;DHT22;12634;50.852;5.676;2023-12-14T03:54:32;7.00;99.90
24468;DHT22;12634;50.852;5.676;2023-12-14T03:57:00;7.00;99.90
24468;DHT22;12634;50.852;5.676;2023-12-14T03:59:27;7.00;99.90
24468;DHT22;12634;50.852;5.676;2023-12-14T04:01:54;6.90;99.90
24468;DHT22;12634;50.852;5.676;2023-12-14T04:04:21;6.90;99.90
24468;DHT22;12634;50.852;5.676;2023-12-14T04:06:50;6.90;99.90
24468;DHT22;12634;50.852;5.676;2023-12-14T04:09:17;6.90;99.90
24468;DHT22;12634;50.852;5.676;2023-12-14T04:11:44;6.90;99.90
24468;DHT22;12634;50.852;5.676;2023-12-14T04:14:11;6.90;99.90
24468;DHT22;12634;50.852;5.676;2023-12-14T04:16:38;6.90;99.90
24468;DHT22;12634;50.852;5.676;2023-12-14T04:19:05;6.90;99.90
24468;DHT22;12634;50.852;5.676;2023-12-14T04:21:36;6.90;99.90
24468;DHT22;12634;50.852;5.676;2023-12-14T04:24:05;6.90;99.90
24468;DHT22;12634;50.852;5.676;2023-12-14T04:26:32;6.90;99.90
24468;DHT22;12634;50.852;5.676;2023-12-14T04:28:59;6.80;99.90
24468;DHT22;12634;50.852;5.676;2023-12-14T04:31:27;6.80;99.90
24468;DHT22;12634;50.852;5.676;2023-12-14T04:33:54;6.80;99.90
24468;DHT22;12634;50.852;5.676;2023-12-14T04:36:21;6.80;99.90
24468;DHT22;12634;50.852;5.676;2023-12-14T04:38:48;6.80;99.90
24468;DHT22;12634;50.852;5.676;2023-12-14T04:41:17;6.80;99.90
24468;DHT22;12634;50.852;5.676;2023-12-14T04:43:44;6.80;99.90
24468;DHT22;12634;50.852;5.676;2023-12-14T04:46:11;6.80;99.90
24468;DHT22;12634;50.852;5.676;2023-12-14T04:48:39;6.70;99.90
24468;DHT22;12634;50.852;5.676;2023-12-14T04:51:11;6.70;99.90
24468;DHT22;12634;50.852;5.676;2023-12-14T04:53:39;6.70;99.90
24468;DHT22;12634;50.852;5.676;2023-12-14T04:56:10;6.70;99.90
24468;DHT22;12634;50.852;5.676;2023-12-14T04:58:39;6.60;99.90
24468;DHT22;12634;50.852;5.676;2023-12-14T05:01:06;6.60;99.90
24468;DHT22;12634;50.852;5.676;2023-12-14T05:03:34;6.60;99.90
24468;DHT22;12634;50.852;5.676;2023-12-14T05:06:02;6.60;99.90
24468;DHT22;12634;50.852;5.676;2023-12-14T05:08:29;6.60;99.90
24468;DHT22;12634;50.852;5.676;2023-12-14T05:10:56;6.50;99.90
24468;DHT22;12634;50.852;5.676;2023-12-14T05:13:23;6.60;99.90
24468;DHT22;12634;50.852;5.676;2023-12-14T05:15:52;6.60;99.90
24468;DHT22;12634;50.852;5.676;2023-12-14T05:18:19;6.60;99.90
24468;DHT22;12634;50.852;5.676;2023-12-14T05:20:46;6.50;99.90
24468;DHT22;12634;50.852;5.676;2023-12-14T05:23:13;6.50;99.90
24468;DHT22;12634;50.852;5.676;2023-12-14T05:25:42;6.50;99.90
24468;DHT22;12634;50.852;5.676;2023-12-14T05:28:09;6.50;99.90
24468;DHT22;12634;50.852;5.676;2023-12-14T05:30:36;6.40;99.90
24468;DHT22;12634;50.852;5.676;2023-12-14T05:33:05;6.40;99.90
24468;DHT22;12634;50.852;5.676;2023-12-14T05:35:32;6.30;99.90
24468;DHT22;12634;50.852;5.676;2023-12-14T05:38:00;6.30;99.90
24468;DHT22;12634;50.852;5.676;2023-12-14T05:40:27;6.30;99.90
24468;DHT22;12634;50.852;5.676;2023-12-14T05:42:55;6.30;99.90
24468;DHT22;12634;50.852;5.676;2023-12-14T05:45:22;6.30;99.90
24468;DHT22;12634;50.852;5.676;2023-12-14T05:47:49;6.20;99.90
24468;DHT22;12634;50.852;5.676;2023-12-14T05:50:18;6.20;99.90
24468;DHT22;12634;50.852;5.676;2023-12-14T05:52:45;6.20;99.90
24468;DHT22;12634;50.852;5.676;2023-12-14T05:55:11;6.20;99.90
24468;DHT22;12634;50.852;5.676;2023-12-14T05:57:38;6.20;99.90
24468;DHT22;12634;50.852;5.676;2023-12-14T06:00:08;6.20;99.90
24468;DHT22;12634;50.852;5.676;2023-12-14T06:02:35;6.10;99.90
24468;DHT22;12634;50.852;5.676;2023-12-14T06:05:04;6.10;99.90
24468;DHT22;12634;50.852;5.676;2023-12-14T06:07:33;6.10;99.90
24468;DHT22;12634;50.852;5.676;2023-12-14T06:10:00;6.10;99.90
24468;DHT22;12634;50.852;5.676;2023-12-14T06:12:28;6.10;99.90
24468;DHT22;12634;50.852;5.676;2023-12-14T06:14:55;6.10;99.90
24468;DHT22;12634;50.852;5.676;2023-12-14T06:17:23;6.00;99.90
24468;DHT22;12634;50.852;5.676;2023-12-14T06:19:50;6.00;99.90
24468;DHT22;12634;50.852;5.676;2023-12-14T06:22:17;6.00;99.90
24468;DHT22;12634;50.852;5.676;2023-12-14T06:24:45;5.90;99.90
24468;DHT22;12634;50.852;5.676;2023-12-14T06:27:13;5.90;99.90
24468;DHT22;12634;50.852;5.676;2023-12-14T06:29:40;5.90;99.90
24468;DHT22;12634;50.852;5.676;2023-12-14T06:32:07;6.00;99.90
24468;DHT22;12634;50.852;5.676;2023-12-14T06:34:34;5.90;99.90
24468;DHT22;12634;50.852;5.676;2023-12-14T06:37:02;5.90;99.90
24468;DHT22;12634;50.852;5.676;2023-12-14T06:39:29;5.90;99.90
24468;DHT22;12634;50.852;5.676;2023-12-14T06:41:57;6.00;99.90
24468;DHT22;12634;50.852;5.676;2023-12-14T06:44:24;6.00;99.90
24468;DHT22;12634;50.852;5.676;2023-12-14T06:46:53;5.90;99.90
24468;DHT22;12634;50.852;5.676;2023-12-14T06:49:21;5.90;99.90
24468;DHT22;12634;50.852;5.676;2023-12-14T06:51:48;5.90;99.90
24468;DHT22;12634;50.852;5.676;2023-12-14T06:54:15;5.90;99.90
24468;DHT22;12634;50.852;5.676;2023-12-14T06:56:42;5.90;99.90
24468;DHT22;12634;50.852;5.676;2023-12-14T06:59:11;5.90;99.90
24468;DHT22;12634;50.852;5.676;2023-12-14T07:01:38;5.90;99.90
24468;DHT22;12634;50.852;5.676;2023-12-14T07:04:06;5.90;99.90
24468;DHT22;12634;50.852;5.676;2023-12-14T07:06:33;5.90;99.90
24468;DHT22;12634;50.852;5.676;2023-12-14T07:09:01;5.90;99.90
24468;DHT22;12634;50.852;5.676;2023-12-14T07:11:28;5.90;99.90
24468;DHT22;12634;50.852;5.676;2023-12-14T07:13:56;5.90;99.90
24468;DHT22;12634;50.852;5.676;2023-12-14T07:16:24;5.90;99.90
24468;DHT22;12634;50.852;5.676;2023-12-14T07:18:51;5.90;99.90
24468;DHT22;12634;50.852;5.676;2023-12-14T07:21:18;5.90;99.90
24468;DHT22;12634;50.852;5.676;2023-12-14T07:23:46;5.90;99.90
24468;DHT22;12634;50.852;5.676;2023-12-14T07:26:13;5.90;99.90
24468;DHT22;12634;50.852;5.676;2023-12-14T07:28:40;5.90;99.90
24468;DHT22;12634;50.852;5.676;2023-12-14T07:31:07;5.90;99.90
24468;DHT22;12634;50.852;5.676;2023-12-14T07:33:36;5.80;99.90
24468;DHT22;12634;50.852;5.676;2023-12-14T07:36:04;5.80;99.90
24468;DHT22;12634;50.852;5.676;2023-12-14T07:38:31;5.80;99.90
24468;DHT22;12634;50.852;5.676;2023-12-14T07:40:59;5.70;99.90
24468;DHT22;12634;50.852;5.676;2023-12-14T07:43:26;5.70;99.90
24468;DHT22;12634;50.852;5.676;2023-12-14T07:45:53;5.70;99.90
24468;DHT22;12634;50.852;5.676;2023-12-14T07:48:20;5.70;99.90
24468;DHT22;12634;50.852;5.676;2023-12-14T07:50:49;5.70;99.90
24468;DHT22;12634;50.852;5.676;2023-12-14T07:53:17;5.70;99.90
24468;DHT22;12634;50.852;5.676;2023-12-14T07:55:44;5.80;99.90
24468;DHT22;12634;50.852;5.676;2023-12-14T07:58:12;5.70;99.90
24468;DHT22;12634;50.852;5.676;2023-12-14T08:00:39;5.70;99.90
24468;DHT22;12634;50.852;5.676;2023-12-14T08:03:07;5.70;99.90
24468;DHT22;12634;50.852;5.676;2023-12-14T08:05:34;5.70;99.90
24468;DHT22;12634;50.852;5.676;2023-12-14T08:08:03;5.70;99.90
24468;DHT22;12634;50.852;5.676;2023-12-14T08:10:30;5.70;99.90
24468;DHT22;12634;50.852;5.676;2023-12-14T08:12:57;5.70;99.90
24468;DHT22;12634;50.852;5.676;2023-12-14T08:15:25;5.80;99.90
24468;DHT22;12634;50.852;5.676;2023-12-14T08:17:52;5.80;99.90
24468;DHT22;12634;50.852;5.676;2023-12-14T08:20:20;5.80;99.90
24468;DHT22;12634;50.852;5.676;2023-12-14T08:22:47;5.80;99.90
24468;DHT22;12634;50.852;5.676;2023-12-14T08:25:16;5.80;99.90
24468;DHT22;12634;50.852;5.676;2023-12-14T08:27:43;5.80;99.90
24468;DHT22;12634;50.852;5.676;2023-12-14T08:30:11;5.80;99.90
24468;DHT22;12634;50.852;5.676;2023-12-14T08:32:39;5.80;99.90
24468;DHT22;12634;50.852;5.676;2023-12-14T08:35:06;5.80;99.90
24468;DHT22;12634;50.852;5.676;2023-12-14T08:37:35;5.80;99.90
24468;DHT22;12634;50.852;5.676;2023-12-14T08:40:03;5.80;99.90
24468;DHT22;12634;50.852;5.676;2023-12-14T08:42:33;5.80;99.90
24468;DHT22;12634;50.852;5.676;2023-12-14T08:45:00;5.80;99.90
24468;DHT22;12634;50.852;5.676;2023-12-14T08:47:27;5.80;99.90
24468;DHT22;12634;50.852;5.676;2023-12-14T08:49:54;5.80;99.90
24468;DHT22;12634;50.852;5.676;2023-12-14T08:52:22;5.80;99.90
24468;DHT22;12634;50.852;5.676;2023-12-14T08:54:49;5.80;99.90
24468;DHT22;12634;50.852;5.676;2023-12-14T08:57:16;5.90;99.90
24468;DHT22;12634;50.852;5.676;2023-12-14T08:59:45;5.90;99.90
24468;DHT22;12634;50.852;5.676;2023-12-14T09:02:12;6.00;99.90
24468;DHT22;12634;50.852;5.676;2023-12-14T09:04:39;6.00;99.90
24468;DHT22;12634;50.852;5.676;2023-12-14T09:07:07;6.00;99.90
24468;DHT22;12634;50.852;5.676;2023-12-14T09:09:34;5.90;99.90
24468;DHT22;12634;50.852;5.676;2023-12-14T09:12:01;5.80;99.90
24468;DHT22;12634;50.852;5.676;2023-12-14T09:14:28;5.80;99.90
24468;DHT22;12634;50.852;5.676;2023-12-14T09:16:57;6.10;99.90
24468;DHT22;12634;50.852;5.676;2023-12-14T09:19:25;6.00;99.90
24468;DHT22;12634;50.852;5.676;2023-12-14T09:21:52;6.10;99.90
24468;DHT22;12634;50.852;5.676;2023-12-14T09:24:19;5.90;99.90
24468;DHT22;12634;50.852;5.676;2023-12-14T09:26:47;5.90;99.90
24468;DHT22;12634;50.852;5.676;2023-12-14T09:29:14;5.80;99.90
24468;DHT22;12634;50.852;5.676;2023-12-14T09:31:42;5.90;99.90
24468;DHT22;12634;50.852;5.676;2023-12-14T09:34:11;5.90;99.90
24468;DHT22;12634;50.852;5.676;2023-12-14T09:36:39;5.90;99.90
24468;DHT22;12634;50.852;5.676;2023-12-14T09:39:07;5.80;99.90
24468;DHT22;12634;50.852;5.676;2023-12-14T09:41:37;5.80;99.90
24468;DHT22;12634;50.852;5.676;2023-12-14T09:44:05;5.80;99.90
24468;DHT22;12634;50.852;5.676;2023-12-14T09:46:34;5.80;99.90
24468;DHT22;12634;50.852;5.676;2023-12-14T09:49:04;5.80;99.90
24468;DHT22;12634;50.852;5.676;2023-12-14T09:51:33;5.80;99.90
24468;DHT22;12634;50.852;5.676;2023-12-14T09:54:00;5.90;99.90
24468;DHT22;12634;50.852;5.676;2023-12-14T09:56:27;6.00;99.90
24468;DHT22;12634;50.852;5.676;2023-12-14T09:58:54;6.00;99.90
24468;DHT22;12634;50.852;5.676;2023-12-14T10:01:23;6.00;99.90
24468;DHT22;12634;50.852;5.676;2023-12-14T10:03:52;6.00;99.90
24468;DHT22;12634;50.852;5.676;2023-12-14T10:06:34;6.00;99.90
24468;DHT22;12634;50.852;5.676;2023-12-14T10:09:02;5.90;99.90
24468;DHT22;12634;50.852;5.676;2023-12-14T10:11:29;5.90;99.90
24468;DHT22;12634;50.852;5.676;2023-12-14T10:13:57;5.90;99.90
24468;DHT22;12634;50.852;5.676;2023-12-14T10:16:28;5.90;99.90
24468;DHT22;12634;50.852;5.676;2023-12-14T10:18:56;6.00;99.90
24468;DHT22;12634;50.852;5.676;2023-12-14T10:21:24;6.00;99.90
24468;DHT22;12634;50.852;5.676;2023-12-14T10:23:55;6.00;99.90
24468;DHT22;12634;50.852;5.676;2023-12-14T10:26:22;6.10;99.90
24468;DHT22;12634;50.852;5.676;2023-12-14T10:28:51;6.10;99.90
24468;DHT22;12634;50.852;5.676;2023-12-14T10:31:19;6.00;99.90
24468;DHT22;12634;50.852;5.676;2023-12-14T10:33:47;6.00;99.90
24468;DHT22;12634;50.852;5.676;2023-12-14T10:36:18;6.10;99.90
24468;DHT22;12634;50.852;5.676;2023-12-14T10:38:49;6.20;99.90
24468;DHT22;12634;50.852;5.676;2023-12-14T10:41:20;6.20;99.90
24468;DHT22;12634;50.852;5.676;2023-12-14T10:43:48;6.20;99.90
24468;DHT22;12634;50.852;5.676;2023-12-14T10:46:18;6.20;99.90
24468;DHT22;12634;50.852;5.676;2023-12-14T10:48:47;6.20;99.90
24468;DHT22;12634;50.852;5.676;2023-12-14T10:51:15;6.20;99.90
24468;DHT22;12634;50.852;5.676;2023-12-14T10:53:44;6.20;99.90
24468;DHT22;12634;50.852;5.676;2023-12-14T10:56:14;6.20;99.90
24468;DHT22;12634;50.852;5.676;2023-12-14T10:58:48;6.20;99.90
24468;DHT22;12634;50.852;5.676;2023-12-14T11:01:16;6.20;99.90
24468;DHT22;12634;50.852;5.676;2023-12-14T11:03:43;6.20;99.90
24468;DHT22;12634;50.852;5.676;2023-12-14T11:06:30;6.30;99.90
24468;DHT22;12634;50.852;5.676;2023-12-14T11:08:59;6.20;99.90
24468;DHT22;12634;50.852;5.676;2023-12-14T11:11:31;6.10;99.90
24468;DHT22;12634;50.852;5.676;2023-12-14T11:14:07;6.10;99.90
24468;DHT22;12634;50.852;5.676;2023-12-14T11:16:37;6.10;99.90
24468;DHT22;12634;50.852;5.676;2023-12-14T11:19:29;6.20;99.90
24468;DHT22;12634;50.852;5.676;2023-12-14T11:22:09;6.30;99.90
24468;DHT22;12634;50.852;5.676;2023-12-14T11:24:41;6.50;99.90
24468;DHT22;12634;50.852;5.676;2023-12-14T11:27:11;6.70;99.90
24468;DHT22;12634;50.852;5.676;2023-12-14T11:29:39;6.80;99.90
24468;DHT22;12634;50.852;5.676;2023-12-14T11:32:07;7.10;99.90
24468;DHT22;12634;50.852;5.676;2023-12-14T11:34:35;7.20;99.90
24468;DHT22;12634;50.852;5.676;2023-12-14T11:37:02;7.30;99.90
24468;DHT22;12634;50.852;5.676;2023-12-14T11:39:31;7.30;99.90
24468;DHT22;12634;50.852;5.676;2023-12-14T11:42:00;7.20;99.90
24468;DHT22;12634;50.852;5.676;2023-12-14T11:44:28;7.10;99.90
24468;DHT22;12634;50.852;5.676;2023-12-14T11:46:57;7.00;99.90
24468;DHT22;12634;50.852;5.676;2023-12-14T11:49:25;7.10;99.90
24468;DHT22;12634;50.852;5.676;2023-12-14T11:51:54;7.10;99.90
24468;DHT22;12634;50.852;5.676;2023-12-14T11:54:21;7.10;99.90
24468;DHT22;12634;50.852;5.676;2023-12-14T11:56:50;7.20;99.90
24468;DHT22;12634;50.852;5.676;2023-12-14T11:59:18;7.20;99.90
24468;DHT22;12634;50.852;5.676;2023-12-14T12:01:58;7.10;99.90
24468;DHT22;12634;50.852;5.676;2023-12-14T12:04:26;7.00;99.90
24468;DHT22;12634;50.852;5.676;2023-12-14T12:07:02;7.00;99.90
24468;DHT22;12634;50.852;5.676;2023-12-14T12:09:37;7.10;99.90
24468;DHT22;12634;50.852;5.676;2023-12-14T12:12:08;7.10;99.90
24468;DHT22;12634;50.852;5.676;2023-12-14T12:14:35;7.10;99.90
24468;DHT22;12634;50.852;5.676;2023-12-14T12:17:05;6.90;99.90
24468;DHT22;12634;50.852;5.676;2023-12-14T12:19:34;6.90;99.90
24468;DHT22;12634;50.852;5.676;2023-12-14T12:22:01;6.90;99.90
24468;DHT22;12634;50.852;5.676;2023-12-14T12:24:29;6.80;99.90
24468;DHT22;12634;50.852;5.676;2023-12-14T12:26:56;6.80;99.90
24468;DHT22;12634;50.852;5.676;2023-12-14T12:29:23;6.80;99.90
24468;DHT22;12634;50.852;5.676;2023-12-14T12:31:50;6.80;99.90
24468;DHT22;12634;50.852;5.676;2023-12-14T12:34:20;6.80;99.90
24468;DHT22;12634;50.852;5.676;2023-12-14T12:36:47;6.80;99.90
24468;DHT22;12634;50.852;5.676;2023-12-14T12:39:15;6.70;99.90
24468;DHT22;12634;50.852;5.676;2023-12-14T12:41:42;6.80;99.90
24468;DHT22;12634;50.852;5.676;2023-12-14T12:44:10;6.80;99.90
24468;DHT22;12634;50.852;5.676;2023-12-14T12:46:37;6.80;99.90
24468;DHT22;12634;50.852;5.676;2023-12-14T12:49:05;6.90;99.90
24468;DHT22;12634;50.852;5.676;2023-12-14T12:51:34;6.90;99.90
24468;DHT22;12634;50.852;5.676;2023-12-14T12:54:01;7.10;99.90
24468;DHT22;12634;50.852;5.676;2023-12-14T12:56:29;7.20;99.90
24468;DHT22;12634;50.852;5.676;2023-12-14T12:58:56;7.40;99.90
24468;DHT22;12634;50.852;5.676;2023-12-14T13:01:24;7.50;99.90
24468;DHT22;12634;50.852;5.676;2023-12-14T13:03:54;7.50;99.90
24468;DHT22;12634;50.852;5.676;2023-12-14T13:06:23;7.40;99.90
24468;DHT22;12634;50.852;5.676;2023-12-14T13:08:52;7.10;99.90
24468;DHT22;12634;50.852;5.676;2023-12-14T13:11:20;7.00;99.90
24468;DHT22;12634;50.852;5.676;2023-12-14T13:13:47;7.00;99.90
24468;DHT22;12634;50.852;5.676;2023-12-14T13:16:14;7.00;99.90
24468;DHT22;12634;50.852;5.676;2023-12-14T13:18:43;6.90;99.90
24468;DHT22;12634;50.852;5.676;2023-12-14T13:21:11;6.90;99.90
24468;DHT22;12634;50.852;5.676;2023-12-14T13:23:39;6.80;99.90
24468;DHT22;12634;50.852;5.676;2023-12-14T13:26:08;6.70;99.90
24468;DHT22;12634;50.852;5.676;2023-12-14T13:28:35;6.70;99.90
24468;DHT22;12634;50.852;5.676;2023-12-14T13:31:02;6.70;99.90
24468;DHT22;12634;50.852;5.676;2023-12-14T13:33:30;6.70;99.90
24468;DHT22;12634;50.852;5.676;2023-12-14T13:35:57;6.60;99.90
24468;DHT22;12634;50.852;5.676;2023-12-14T13:38:24;6.60;99.90
24468;DHT22;12634;50.852;5.676;2023-12-14T13:40:52;6.70;99.90
24468;DHT22;12634;50.852;5.676;2023-12-14T13:43:20;6.60;99.90
24468;DHT22;12634;50.852;5.676;2023-12-14T13:45:48;6.70;99.90
24468;DHT22;12634;50.852;5.676;2023-12-14T13:48:18;6.70;99.90
24468;DHT22;12634;50.852;5.676;2023-12-14T13:50:45;6.70;99.90
24468;DHT22;12634;50.852;5.676;2023-12-14T13:53:12;6.60;99.90
24468;DHT22;12634;50.852;5.676;2023-12-14T13:55:40;6.60;99.90
24468;DHT22;12634;50.852;5.676;2023-12-14T13:58:07;6.60;99.90
24468;DHT22;12634;50.852;5.676;2023-12-14T14:00:37;6.50;99.90
24468;DHT22;12634;50.852;5.676;2023-12-14T14:03:04;6.50;99.90
24468;DHT22;12634;50.852;5.676;2023-12-14T14:05:32;6.50;99.90
24468;DHT22;12634;50.852;5.676;2023-12-14T14:08:00;6.50;99.90
24468;DHT22;12634;50.852;5.676;2023-12-14T14:10:27;6.50;99.90
24468;DHT22;12634;50.852;5.676;2023-12-14T14:12:55;6.50;99.90
24468;DHT22;12634;50.852;5.676;2023-12-14T14:15:22;6.50;99.90
24468;DHT22;12634;50.852;5.676;2023-12-14T14:17:51;6.50;99.90
24468;DHT22;12634;50.852;5.676;2023-12-14T14:20:20;6.50;99.90
24468;DHT22;12634;50.852;5.676;2023-12-14T14:22:48;6.40;99.90
24468;DHT22;12634;50.852;5.676;2023-12-14T14:25:15;6.40;99.90
24468;DHT22;12634;50.852;5.676;2023-12-14T14:27:43;6.40;99.90
24468;DHT22;12634;50.852;5.676;2023-12-14T14:30:13;6.50;99.90
24468;DHT22;12634;50.852;5.676;2023-12-14T14:32:41;6.50;99.90
24468;DHT22;12634;50.852;5.676;2023-12-14T14:35:10;6.40;99.90
24468;DHT22;12634;50.852;5.676;2023-12-14T14:37:37;6.40;99.90
24468;DHT22;12634;50.852;5.676;2023-12-14T14:40:06;6.40;99.90
24468;DHT22;12634;50.852;5.676;2023-12-14T14:42:34;6.40;99.90
24468;DHT22;12634;50.852;5.676;2023-12-14T14:45:01;6.40;99.90
24468;DHT22;12634;50.852;5.676;2023-12-14T14:47:28;6.40;99.90
24468;DHT22;12634;50.852;5.676;2023-12-14T14:49:56;6.40;99.90
24468;DHT22;12634;50.852;5.676;2023-12-14T14:52:30;6.30;99.90
24468;DHT22;12634;50.852;5.676;2023-12-14T14:54:57;6.30;99.90
24468;DHT22;12634;50.852;5.676;2023-12-14T14:57:25;6.30;99.90
24468;DHT22;12634;50.852;5.676;2023-12-14T14:59:52;6.30;99.90
24468;DHT22;12634;50.852;5.676;2023-12-14T15:02:19;6.30;99.90
24468;DHT22;12634;50.852;5.676;2023-12-14T15:04:47;6.30;99.90
24468;DHT22;12634;50.852;5.676;2023-12-14T15:07:14;6.20;99.90
24468;DHT22;12634;50.852;5.676;2023-12-14T15:09:43;6.20;99.90
24468;DHT22;12634;50.852;5.676;2023-12-14T15:12:10;6.20;99.90
24468;DHT22;12634;50.852;5.676;2023-12-14T15:14:37;6.20;99.90
24468;DHT22;12634;50.852;5.676;2023-12-14T15:17:05;6.10;99.90
24468;DHT22;12634;50.852;5.676;2023-12-14T15:19:32;6.20;99.90
24468;DHT22;12634;50.852;5.676;2023-12-14T15:21:59;6.20;99.90
24468;DHT22;12634;50.852;5.676;2023-12-14T15:24:26;6.20;99.90
24468;DHT22;12634;50.852;5.676;2023-12-14T15:26:55;6.20;99.90
24468;DHT22;12634;50.852;5.676;2023-12-14T15:29:22;6.10;99.90
24468;DHT22;12634;50.852;5.676;2023-12-14T15:31:49;6.00;99.90
24468;DHT22;12634;50.852;5.676;2023-12-14T15:34:18;6.00;99.90
24468;DHT22;12634;50.852;5.676;2023-12-14T15:36:45;5.90;99.90
24468;DHT22;12634;50.852;5.676;2023-12-14T15:39:13;5.80;99.90
24468;DHT22;12634;50.852;5.676;2023-12-14T15:41:40;5.80;99.90
24468;DHT22;12634;50.852;5.676;2023-12-14T15:44:09;5.80;99.90
24468;DHT22;12634;50.852;5.676;2023-12-14T15:46:36;5.80;99.90
24468;DHT22;12634;50.852;5.676;2023-12-14T15:49:03;5.70;99.90